Rechercher aéroport 
image banner adimage banner adimage banner ad
image banner ad

CL71 - Hughes/Corporate

Situé à Los Angeles, United States

ICAO - CL71, IATA -

Données fournies par Airmate  

Information générale

Coordonnées: N33°57'58" W118°25'29"
Élévation : 75 feet MSL.
Variation magnétique : 14° East
Voir autres Aéroports à California

Données opérationnelles

Special qualification required
Heure actuelle UTC:
Heure actuelle locale:
Météo à : KLAX - Los Angeles Intl ( 3 km )
METAR: KLAX 020653Z 19005KT 10SM CLR 18/15 A3002 RMK AO2 SLP163 T01780150
TAF: KLAX 020533Z 0206/0312 24005KT P6SM SKC FM021000 VRB03KT P6SM SKC FM021700 25006KT P6SM SKC FM022000 26012KT P6SM SKC FM030400 25006KT P6SM SKC FM031000 VRB03KT P6SM SKC
Voir NOTAMs / SUP AIP / TFR affectant cet aéroport [VIEW]
Fréquences de communication: [VIEW]

Pistes:

Coordonnées de l'aéroport

Adresse: Los Angeles United States

Vue satellite de CL71